Time;durP1;ratioP1;P1;durP2;ratioP2;P2;SDS_P1;SDS_P2;PMS_P1;PMS_P2;Temp;Humidity;BMP_temperature;BMP_pressure;BME280_temperature;BME280_humidity;BME280_pressure;Samples;Min_cycle;Max_cycle;Signal;HPM_P1;HPM_P2
2023/12/21 00:01:33;;;;;;;0.32;0.32;;;;;;;4.16;87.45;96595.72;5055600;28;20361;-71
2023/12/21 00:04:02;;;;;;;0.20;0.20;;;;;;;4.19;87.08;96587.44;5053222;28;20084;-73
2023/12/21 00:06:30;;;;;;;0.30;0.30;;;;;;;4.25;86.75;96585.91;5049452;28;20076;-73
2023/12/21 00:08:58;;;;;;;0.20;0.20;;;;;;;4.22;87.15;96575.72;5053412;28;20507;-73
2023/12/21 00:11:26;;;;;;;0.35;0.35;;;;;;;4.18;87.76;96577.06;5059351;28;20049;-73
2023/12/21 00:13:54;;;;;;;0.30;0.30;;;;;;;4.17;87.06;96560.38;5057482;28;20421;-73
2023/12/21 00:16:21;;;;;;;0.10;0.10;;;;;;;4.21;86.99;96564.31;5048485;28;20123;-73
2023/12/21 00:18:50;;;;;;;0.50;0.50;;;;;;;4.24;86.82;96557.88;5045099;28;20036;-73
2023/12/21 00:21:18;;;;;;;0.25;0.25;;;;;;;4.17;86.98;96562.22;5056043;28;20158;-73
2023/12/21 00:23:46;;;;;;;0.30;0.30;;;;;;;4.19;86.57;96561.03;5053193;28;20507;-72
2023/12/21 00:26:14;;;;;;;0.40;0.40;;;;;;;4.19;86.69;96544.38;5044668;28;20041;-72
2023/12/21 00:28:41;;;;;;;0.20;0.20;;;;;;;4.21;86.24;96542.38;5043315;28;20048;-73
2023/12/21 00:31:09;;;;;;;0.30;0.30;;;;;;;4.21;86.09;96537.91;5049293;28;20091;-72
2023/12/21 00:33:37;;;;;;;0.20;0.20;;;;;;;4.29;86.31;96544.91;5045970;28;20045;-70
2023/12/21 00:36:06;;;;;;;0.30;0.30;;;;;;;4.24;85.92;96537.56;5047486;28;20099;-72
2023/12/21 00:38:34;;;;;;;0.45;0.45;;;;;;;4.25;86.03;96535.75;5050278;28;20052;-72
2023/12/21 00:41:01;;;;;;;0.32;0.32;;;;;;;4.26;85.31;96524.16;5052530;28;20055;-72
2023/12/21 00:43:29;;;;;;;0.20;0.20;;;;;;;4.27;85.82;96525.78;5048160;28;20577;-71
2023/12/21 00:45:57;;;;;;;0.30;0.30;;;;;;;4.29;85.68;96513.22;5050031;28;20051;-74
2023/12/21 00:48:24;;;;;;;0.40;0.40;;;;;;;4.31;85.64;96504.13;5048780;28;20137;-73
2023/12/21 00:50:52;;;;;;;0.32;0.32;;;;;;;4.37;85.45;96500.75;5049064;28;20102;-71
2023/12/21 00:53:21;;;;;;;0.20;0.20;;;;;;;4.40;85.73;96512.78;5050239;28;20048;-70
2023/12/21 00:55:49;;;;;;;0.30;0.30;;;;;;;4.41;85.53;96494.09;5049291;28;20045;-72
2023/12/21 00:58:16;;;;;;;0.20;0.20;;;;;;;4.42;85.87;96502.84;5054296;28;20045;-71
2023/12/21 01:00:44;;;;;;;0.20;0.20;;;;;;;4.48;85.24;96496.81;5051238;28;20083;-70
2023/12/21 01:03:15;;;;;;;0.20;0.20;;;;;;;4.41;85.71;96496.75;5049393;28;20045;-71
2023/12/21 01:05:45;;;;;;;0.30;0.30;;;;;;;4.43;86.18;96492.09;5047965;28;20123;-72
2023/12/21 01:08:13;;;;;;;0.20;0.20;;;;;;;4.45;85.71;96486.66;5051146;28;20044;-73
2023/12/21 01:10:42;;;;;;;0.30;0.30;;;;;;;4.49;85.33;96484.44;5048877;28;20107;-73
2023/12/21 01:13:10;;;;;;;0.28;0.28;;;;;;;4.50;85.44;96488.72;5046468;28;20407;-70
2023/12/21 01:15:37;;;;;;;0.30;0.30;;;;;;;4.52;85.56;96484.91;5049835;28;20485;-71
2023/12/21 01:18:05;;;;;;;0.40;0.40;;;;;;;4.50;85.42;96480.78;5050175;28;20041;-73
2023/12/21 01:20:33;;;;;;;0.63;0.63;;;;;;;4.52;85.34;96479.63;5048119;28;20403;-73
2023/12/21 01:23:02;;;;;;;0.30;0.30;;;;;;;4.50;85.39;96471.03;5047093;28;20120;-73
2023/12/21 01:25:28;;;;;;;0.22;0.22;;;;;;;4.53;84.89;96459.31;5045140;28;20063;-70
2023/12/21 01:27:57;;;;;;;0.40;0.40;;;;;;;4.57;84.90;96471.94;5050459;28;20060;-70
2023/12/21 01:30:25;;;;;;;0.38;0.38;;;;;;;4.60;84.60;96458.38;5055843;28;20048;-70
2023/12/21 01:32:53;;;;;;;0.28;0.28;;;;;;;4.59;84.51;96459.38;5053637;28;20037;-70
2023/12/21 01:35:21;;;;;;;0.20;0.20;;;;;;;4.62;84.46;96458.19;5052757;28;20036;-70
2023/12/21 01:37:49;;;;;;;0.22;0.22;;;;;;;4.58;84.83;96446.34;5050242;28;20070;-72
2023/12/21 01:40:17;;;;;;;0.38;0.38;;;;;;;4.62;84.21;96437.03;5051834;28;20524;-71
2023/12/21 01:42:45;;;;;;;0.30;0.30;;;;;;;4.61;84.12;96444.16;5049758;28;20041;-69
2023/12/21 01:45:14;;;;;;;0.30;0.30;;;;;;;4.60;83.91;96433.75;5052505;28;20041;-70
2023/12/21 01:47:45;;;;;;;0.30;0.30;;;;;;;4.64;84.05;96443.78;5053573;28;20037;-70
2023/12/21 01:50:13;;;;;;;0.30;0.30;;;;;;;4.62;84.21;96460.81;5054485;28;20399;-69
2023/12/21 01:52:41;;;;;;;0.22;0.22;;;;;;;4.60;84.35;96447.78;5051168;28;20060;-70
2023/12/21 01:55:09;;;;;;;0.30;0.30;;;;;;;4.62;84.16;96451.06;5052531;28;20045;-70
2023/12/21 01:57:37;;;;;;;0.20;0.20;;;;;;;4.63;84.02;96436.03;5049955;28;20067;-70
2023/12/21 02:00:06;;;;;;;0.30;0.30;;;;;;;4.63;84.12;96449.25;5048795;28;20049;-70
2023/12/21 02:02:35;;;;;;;0.20;0.20;;;;;;;4.61;84.39;96443.34;5047651;28;20037;-70
2023/12/21 02:05:03;;;;;;;0.22;0.22;;;;;;;4.66;83.40;96436.50;5053550;28;20508;-70
2023/12/21 02:07:31;;;;;;;0.40;0.40;;;;;;;4.65;83.73;96418.19;5047587;28;20108;-70
2023/12/21 02:09:59;;;;;;;0.30;0.30;;;;;;;4.66;83.83;96419.81;5046816;28;20045;-70
2023/12/21 02:12:26;;;;;;;0.20;0.20;;;;;;;4.67;83.73;96416.97;5052339;28;20039;-70
2023/12/21 02:14:54;;;;;;;0.20;0.20;;;;;;;4.69;83.60;96407.03;5051514;28;20041;-71
2023/12/21 02:17:22;;;;;;;0.20;0.20;;;;;;;4.69;83.31;96390.38;5050543;28;20083;-70
2023/12/21 02:19:51;;;;;;;0.20;0.20;;;;;;;4.68;83.50;96400.13;5049605;28;20057;-70
2023/12/21 02:22:20;;;;;;;0.22;0.22;;;;;;;4.67;83.70;96390.53;5050005;28;20523;-70
2023/12/21 02:24:49;;;;;;;0.30;0.30;;;;;;;4.74;83.28;96395.91;5049545;28;20045;-70
2023/12/21 02:27:16;;;;;;;0.30;0.30;;;;;;;4.73;83.38;96389.81;5054466;28;20051;-71
2023/12/21 02:29:44;;;;;;;0.20;0.20;;;;;;;4.69;83.47;96375.31;5046864;28;20059;-70
2023/12/21 02:32:12;;;;;;;0.30;0.30;;;;;;;4.72;83.47;96377.59;5049198;28;20508;-71
2023/12/21 02:34:39;;;;;;;0.20;0.20;;;;;;;4.74;83.36;96365.03;5052503;28;20100;-71
2023/12/21 02:37:07;;;;;;;0.20;0.20;;;;;;;4.73;83.71;96363.38;5052076;28;20041;-71
2023/12/21 02:39:34;;;;;;;0.20;0.20;;;;;;;4.72;83.85;96368.84;5051100;28;20064;-71
2023/12/21 02:42:04;;;;;;;0.20;0.20;;;;;;;4.75;83.82;96363.19;5055363;28;20059;-70
2023/12/21 02:44:31;;;;;;;0.22;0.22;;;;;;;4.71;84.16;96354.81;5049199;28;20094;-71
2023/12/21 02:46:59;;;;;;;0.30;0.30;;;;;;;4.71;84.11;96349.53;5050437;28;20144;-71
2023/12/21 02:49:27;;;;;;;0.22;0.22;;;;;;;4.75;83.74;96334.94;5049465;28;20041;-71
2023/12/21 02:51:55;;;;;;;0.20;0.20;;;;;;;4.76;84.29;96356.91;5050792;28;20052;-71
2023/12/21 02:54:22;;;;;;;0.20;0.20;;;;;;;4.78;83.92;96363.63;5052242;28;20091;-70
2023/12/21 02:56:50;;;;;;;0.30;0.30;;;;;;;4.80;83.98;96350.22;5050383;28;20041;-71
2023/12/21 02:59:19;;;;;;;0.20;0.20;;;;;;;4.79;84.08;96335.38;5049857;28;20037;-71
2023/12/21 03:01:46;;;;;;;0.30;0.30;;;;;;;4.80;84.10;96340.47;5043619;28;20504;-70
2023/12/21 03:04:14;;;;;;;0.20;0.20;;;;;;;4.83;84.18;96334.00;5051781;28;20048;-71
2023/12/21 03:06:42;;;;;;;0.17;0.17;;;;;;;4.87;83.87;96327.34;5049551;28;20569;-71
2023/12/21 03:09:10;;;;;;;0.32;0.32;;;;;;;4.86;84.28;96336.28;5048644;28;20049;-71
2023/12/21 03:11:38;;;;;;;0.30;0.30;;;;;;;4.89;84.12;96305.97;5045579;28;20072;-71
2023/12/21 03:14:05;;;;;;;0.10;0.10;;;;;;;4.90;84.29;96310.25;5045771;28;20049;-71
2023/12/21 03:16:34;;;;;;;0.40;0.40;;;;;;;4.89;84.23;96304.16;5045977;28;20040;-71
2023/12/21 03:19:02;;;;;;;0.20;0.20;;;;;;;4.91;83.81;96302.13;5050585;28;20045;-71
2023/12/21 03:21:30;;;;;;;0.30;0.30;;;;;;;4.92;84.12;96298.47;5049023;28;20507;-71
2023/12/21 03:23:58;;;;;;;0.30;0.30;;;;;;;4.95;83.99;96292.00;5049033;28;20072;-71
2023/12/21 03:26:25;;;;;;;0.30;0.30;;;;;;;4.95;83.83;96271.69;5046225;28;20057;-71
2023/12/21 03:28:53;;;;;;;0.30;0.30;;;;;;;4.96;83.92;96283.88;5050781;28;20051;-71
2023/12/21 03:31:20;;;;;;;0.22;0.22;;;;;;;4.96;83.86;96264.56;5048411;28;20041;-72
2023/12/21 03:33:49;;;;;;;0.20;0.20;;;;;;;5.02;83.59;96271.72;5048908;28;20500;-72
2023/12/21 03:36:17;;;;;;;0.10;0.10;;;;;;;5.01;83.65;96268.25;5049072;28;20049;-72
2023/12/21 03:38:44;;;;;;;0.17;0.17;;;;;;;5.05;83.55;96272.16;5049587;28;20090;-71
2023/12/21 03:41:12;;;;;;;0.20;0.20;;;;;;;5.05;83.52;96271.34;5053706;28;20059;-72
2023/12/21 03:43:40;;;;;;;0.40;0.40;;;;;;;5.05;83.35;96266.06;5048507;28;20083;-71
2023/12/21 03:46:09;;;;;;;0.60;0.60;;;;;;;5.06;83.69;96267.69;5040431;28;20451;-71
2023/12/21 03:48:36;;;;;;;0.20;0.20;;;;;;;5.08;83.47;96240.03;5048575;28;20084;-71
2023/12/21 03:51:06;;;;;;;0.20;0.20;;;;;;;5.07;83.44;96253.47;5046784;28;20040;-71
2023/12/21 03:53:33;;;;;;;0.30;0.30;;;;;;;5.10;82.91;96256.50;5041541;28;20452;-71
2023/12/21 03:56:01;;;;;;;0.35;0.35;;;;;;;5.10;83.25;96247.75;5056393;28;20408;-71
2023/12/21 03:58:28;;;;;;;0.30;0.30;;;;;;;5.09;83.36;96231.06;5048524;28;20094;-71
2023/12/21 04:00:57;;;;;;;0.25;0.25;;;;;;;5.08;83.62;96237.41;5049216;28;20500;-71
2023/12/21 04:03:24;;;;;;;0.30;0.30;;;;;;;5.09;83.72;96232.91;5046107;28;20041;-71
2023/12/21 04:05:53;;;;;;;0.40;0.40;;;;;;;5.11;83.45;96228.25;5048374;28;20037;-71
2023/12/21 04:08:22;;;;;;;0.30;0.30;;;;;;;5.14;83.30;96223.41;5049103;28;20048;-71
2023/12/21 04:10:50;;;;;;;0.20;0.20;;;;;;;5.10;83.63;96218.66;5047883;28;20041;-72
2023/12/21 04:13:20;;;;;;;0.20;0.20;;;;;;;5.09;83.74;96217.03;5050103;28;20492;-71
2023/12/21 04:15:47;;;;;;;0.30;0.30;;;;;;;5.10;83.34;96219.50;5049878;28;20102;-71
2023/12/21 04:18:15;;;;;;;0.40;0.40;;;;;;;5.10;83.48;96203.63;5046377;28;20046;-71
2023/12/21 04:20:43;;;;;;;0.30;0.30;;;;;;;5.13;83.21;96195.31;5046113;28;20427;-70
2023/12/21 04:23:10;;;;;;;0.15;0.15;;;;;;;5.18;83.13;96194.75;5049217;28;20041;-70
2023/12/21 04:25:39;;;;;;;0.20;0.20;;;;;;;5.13;83.37;96195.31;5049999;28;20268;-71
2023/12/21 04:28:07;;;;;;;0.30;0.30;;;;;;;5.15;83.26;96197.78;5048551;28;20048;-71
2023/12/21 04:30:34;;;;;;;0.50;0.50;;;;;;;5.14;83.24;96188.19;5048731;28;20049;-70
2023/12/21 04:33:02;;;;;;;0.40;0.40;;;;;;;5.16;83.18;96188.81;5047427;28;20137;-71
2023/12/21 04:35:30;;;;;;;0.17;0.17;;;;;;;5.16;83.28;96176.41;5047898;28;20068;-71
2023/12/21 04:37:57;;;;;;;0.30;0.30;;;;;;;5.21;82.87;96167.88;5050248;28;20508;-71
2023/12/21 04:40:25;;;;;;;0.30;0.30;;;;;;;5.19;82.95;96154.06;5054521;28;20045;-71
2023/12/21 04:42:56;;;;;;;0.25;0.25;;;;;;;5.22;83.07;96156.28;5048480;28;20037;-71
2023/12/21 04:45:24;;;;;;;0.20;0.20;;;;;;;5.22;83.27;96163.41;5049957;28;20044;-71
2023/12/21 04:47:52;;;;;;;0.10;0.10;;;;;;;5.24;83.34;96150.81;5048155;28;20033;-71
2023/12/21 04:50:20;;;;;;;0.30;0.30;;;;;;;5.24;83.62;96142.88;5037519;28;20033;-71
2023/12/21 04:52:47;;;;;;;0.38;0.38;;;;;;;5.19;83.91;96148.78;5047954;28;20379;-71
2023/12/21 04:55:16;;;;;;;0.30;0.30;;;;;;;5.21;83.95;96146.72;5045094;28;20096;-71
2023/12/21 04:57:44;;;;;;;0.25;0.25;;;;;;;5.23;84.06;96152.63;5050149;28;20048;-70
2023/12/21 05:00:14;;;;;;;0.30;0.30;;;;;;;5.21;84.48;96154.66;5049639;28;20405;-70
2023/12/21 05:02:41;;;;;;;0.30;0.30;;;;;;;5.19;84.68;96154.06;5044608;28;20052;-69
2023/12/21 05:05:09;;;;;;;0.20;0.20;;;;;;;5.17;84.96;96164.00;5050324;28;20052;-71
2023/12/21 05:07:37;;;;;;;0.32;0.32;;;;;;;5.22;85.12;96151.00;5073719;22;20045;-73
2023/12/21 05:10:05;;;;;;;0.20;0.20;;;;;;;5.23;85.10;96154.47;5026490;28;20060;-72
2023/12/21 05:12:33;;;;;;;0.20;0.20;;;;;;;5.25;84.93;96145.31;5031941;28;20474;-73
2023/12/21 05:15:01;;;;;;;0.22;0.22;;;;;;;5.29;84.86;96138.66;5022613;28;20046;-73
2023/12/21 05:17:29;;;;;;;0.30;0.30;;;;;;;5.30;84.75;96132.31;5030497;28;20408;-73
2023/12/21 05:19:57;;;;;;;0.45;0.45;;;;;;;5.33;84.66;96124.00;5008985;28;20345;-73
2023/12/21 05:22:25;;;;;;;0.30;0.30;;;;;;;5.34;84.34;96141.50;5011641;28;20046;-73
2023/12/21 05:24:52;;;;;;;0.20;0.20;;;;;;;5.38;84.18;96141.94;5004689;28;20121;-73
2023/12/21 05:27:20;;;;;;;0.20;0.20;;;;;;;5.39;84.07;96139.09;5014216;28;20515;-73
2023/12/21 05:29:48;;;;;;;0.20;0.20;;;;;;;5.37;84.31;96133.16;5010461;28;20042;-73
2023/12/21 05:32:15;;;;;;;0.20;0.20;;;;;;;5.41;84.20;96123.00;5012369;28;20046;-73
2023/12/21 05:34:44;;;;;;;0.20;0.20;;;;;;;5.40;84.40;96116.88;5013099;28;20432;-73
2023/12/21 05:37:12;;;;;;;0.20;0.20;;;;;;;5.40;84.28;96110.78;5014676;28;20050;-73
2023/12/21 05:39:39;;;;;;;0.13;0.13;;;;;;;5.43;84.33;96099.81;5011993;28;20042;-74
2023/12/21 05:42:07;;;;;;;0.30;0.30;;;;;;;5.45;84.20;96087.19;5014609;28;20077;-73
2023/12/21 05:44:35;;;;;;;0.22;0.22;;;;;;;5.44;84.37;96096.97;5013855;28;20405;-73
2023/12/21 05:47:02;;;;;;;0.30;0.30;;;;;;;5.44;84.49;96090.84;5004164;28;20046;-73
2023/12/21 05:49:30;;;;;;;0.40;0.40;;;;;;;5.44;84.71;96082.91;5007666;28;20050;-73
2023/12/21 05:51:59;;;;;;;0.20;0.20;;;;;;;5.45;84.66;96064.19;5010324;28;20061;-73
2023/12/21 05:54:30;;;;;;;0.28;0.28;;;;;;;5.50;84.65;96068.91;5012588;28;20135;-73
2023/12/21 05:56:58;;;;;;;0.30;0.30;;;;;;;5.49;84.70;96065.44;5008152;28;20048;-73
2023/12/21 05:59:25;;;;;;;0.25;0.25;;;;;;;5.49;84.83;96069.91;5009502;28;20116;-73
2023/12/21 06:01:53;;;;;;;0.20;0.20;;;;;;;5.53;84.97;96069.31;5007262;28;20046;-73
2023/12/21 06:04:21;;;;;;;0.22;0.22;;;;;;;5.52;85.16;96070.31;5010007;28;20061;-73
2023/12/21 06:06:49;;;;;;;0.35;0.35;;;;;;;5.56;85.15;96054.88;5010812;28;20053;-72
2023/12/21 06:09:18;;;;;;;0.32;0.32;;;;;;;5.57;85.33;96061.78;5010873;28;20129;-73
2023/12/21 06:11:45;;;;;;;0.22;0.22;;;;;;;5.60;85.46;96055.28;5009819;28;20401;-72
2023/12/21 06:14:17;;;;;;;0.22;0.22;;;;;;;5.62;85.09;96066.47;5005718;28;20353;-71
2023/12/21 06:16:44;;;;;;;0.20;0.20;;;;;;;5.69;85.02;96075.25;5005816;28;20043;-71
2023/12/21 06:19:14;;;;;;;0.20;0.20;;;;;;;5.64;85.33;96073.19;5011673;28;20041;-71
2023/12/21 06:21:42;;;;;;;0.30;0.30;;;;;;;5.66;85.26;96086.22;5005379;28;21191;-72
2023/12/21 06:24:10;;;;;;;0.20;0.20;;;;;;;5.68;85.40;96092.94;5011080;28;20069;-74
2023/12/21 06:26:41;;;;;;;0.28;0.28;;;;;;;5.71;85.12;96073.22;5010494;28;20049;-71
2023/12/21 06:29:08;;;;;;;0.47;0.47;;;;;;;5.74;84.79;96070.97;5008534;28;20056;-73
2023/12/21 06:31:36;;;;;;;0.20;0.20;;;;;;;5.76;84.87;96073.41;5010773;28;20042;-73
2023/12/21 06:34:04;;;;;;;0.20;0.20;;;;;;;5.74;84.92;96092.13;5011857;28;20144;-71
2023/12/21 06:36:32;;;;;;;0.30;0.30;;;;;;;5.77;84.53;96086.44;5012353;28;20045;-73
2023/12/21 06:38:59;;;;;;;0.20;0.20;;;;;;;5.80;84.73;96079.94;5010320;28;20074;-74
2023/12/21 06:41:28;;;;;;;0.30;0.30;;;;;;;5.79;84.55;96060.59;5007915;28;20077;-73
2023/12/21 06:43:57;;;;;;;0.20;0.20;;;;;;;5.81;84.46;96061.19;5012763;28;20078;-72
2023/12/21 06:46:25;;;;;;;0.15;0.15;;;;;;;5.85;84.13;96057.13;5010254;28;20052;-71
2023/12/21 06:48:53;;;;;;;0.20;0.20;;;;;;;5.87;84.02;96054.28;5011985;28;20045;-75
2023/12/21 06:51:20;;;;;;;0.13;0.13;;;;;;;5.91;83.89;96034.38;5007177;28;20088;-73
2023/12/21 06:53:48;;;;;;;0.30;0.30;;;;;;;5.94;83.87;96002.16;5007653;28;20374;-72
2023/12/21 06:56:17;;;;;;;0.10;0.10;;;;;;;5.92;83.96;95992.81;5013874;28;20437;-73
2023/12/21 06:59:02;;;;;;;0.25;0.25;;;;;;;5.93;84.15;95999.72;5006864;28;20042;-72
2023/12/21 07:01:30;;;;;;;0.30;0.30;;;;;;;5.91;84.15;95999.94;5008876;28;20038;-71
2023/12/21 07:03:58;;;;;;;0.20;0.20;;;;;;;5.95;84.22;96009.09;5027981;28;20077;-72
2023/12/21 07:06:26;;;;;;;0.10;0.10;;;;;;;5.96;83.72;96016.00;5022708;28;20045;-72
2023/12/21 07:08:53;;;;;;;0.50;0.50;;;;;;;5.99;83.74;96018.25;5025049;28;20284;-72
2023/12/21 07:11:20;;;;;;;0.22;0.22;;;;;;;5.95;83.68;95998.50;5027990;28;20099;-71
2023/12/21 07:13:47;;;;;;;;;;;;;;;6.02;83.52;96004.59;5024983;28;20048;-72
2023/12/21 07:16:16;;;;;;;0.28;0.28;;;;;;;6.02;83.53;96004.59;5023235;28;19948;-73
2023/12/21 07:18:44;;;;;;;0.20;0.20;;;;;;;5.99;83.68;95981.19;5013926;28;20049;-71
2023/12/21 07:21:13;;;;;;;0.30;0.30;;;;;;;6.05;83.62;95984.84;5010984;28;20129;-72
2023/12/21 07:23:40;;;;;;;0.32;0.32;;;;;;;6.04;83.64;95975.25;5012113;28;20045;-71
2023/12/21 07:26:09;;;;;;;0.20;0.20;;;;;;;6.08;83.61;95976.47;5012663;28;20053;-72
2023/12/21 07:28:37;;;;;;;0.20;0.20;;;;;;;6.04;83.49;95959.38;5012082;28;20089;-72
2023/12/21 07:31:04;;;;;;;0.30;0.30;;;;;;;6.03;83.63;95947.97;5011325;28;20053;-72
2023/12/21 07:33:34;;;;;;;0.20;0.20;;;;;;;6.04;84.00;95969.97;5011052;28;20108;-72
2023/12/21 07:36:02;;;;;;;0.10;0.10;;;;;;;6.05;83.84;95940.63;5011528;28;20049;-72
2023/12/21 07:38:30;;;;;;;0.28;0.28;;;;;;;6.05;84.10;95959.16;5010661;28;20037;-72
2023/12/21 07:40:57;;;;;;;0.20;0.20;;;;;;;6.05;84.24;95953.88;5006414;28;20401;-72
2023/12/21 07:43:25;;;;;;;0.30;0.30;;;;;;;6.06;84.01;95947.56;5010937;28;20045;-72
2023/12/21 07:45:53;;;;;;;0.30;0.30;;;;;;;6.09;83.94;95947.16;5011340;28;20041;-72
2023/12/21 07:48:20;;;;;;;0.32;0.32;;;;;;;6.09;84.06;95948.97;5009536;28;20042;-73
2023/12/21 07:50:50;;;;;;;0.10;0.10;;;;;;;6.13;83.96;95939.59;5011317;28;20044;-71
2023/12/21 07:53:17;;;;;;;0.30;0.30;;;;;;;6.12;83.83;95925.56;5006325;28;20038;-72
2023/12/21 07:55:45;;;;;;;0.22;0.22;;;;;;;6.10;83.75;95929.44;5000731;28;20486;-72
2023/12/21 07:58:13;;;;;;;0.20;0.20;;;;;;;6.10;83.98;95938.19;5011199;28;20132;-72
2023/12/21 08:00:40;;;;;;;0.25;0.25;;;;;;;6.11;83.90;95904.56;5016793;28;20367;-73
2023/12/21 08:03:08;;;;;;;0.22;0.22;;;;;;;6.12;83.96;95916.81;5013109;28;20500;-72
2023/12/21 08:05:36;;;;;;;0.20;0.20;;;;;;;6.17;83.54;95904.53;5016356;28;20076;-72
2023/12/21 08:08:06;;;;;;;0.13;0.13;;;;;;;6.15;83.84;95860.75;5011726;28;20131;-73
2023/12/21 08:10:33;;;;;;;0.30;0.30;;;;;;;6.20;83.77;95890.88;4998592;28;20117;-73
2023/12/21 08:13:01;;;;;;;0.15;0.15;;;;;;;6.16;83.99;95884.38;5004880;28;20050;-73
2023/12/21 08:15:29;;;;;;;0.20;0.20;;;;;;;6.19;83.98;95891.09;5010413;28;20516;-72
2023/12/21 08:17:56;;;;;;;0.30;0.30;;;;;;;6.14;84.29;95878.47;5011174;28;20044;-72
2023/12/21 08:20:24;;;;;;;0.30;0.30;;;;;;;6.17;84.10;95871.94;5007405;28;20046;-72
2023/12/21 08:22:51;;;;;;;0.20;0.20;;;;;;;6.21;83.84;95875.81;5006779;28;20052;-72
2023/12/21 08:25:23;;;;;;;0.22;0.22;;;;;;;6.21;83.81;95868.69;5005484;28;20050;-73
2023/12/21 08:27:50;;;;;;;0.45;0.45;;;;;;;6.22;84.66;95864.19;5006876;28;20042;-72
2023/12/21 08:30:18;;;;;;;0.30;0.30;;;;;;;6.20;84.34;95858.28;5016977;28;20284;-72
2023/12/21 08:32:49;;;;;;;0.30;0.30;;;;;;;6.22;84.28;95856.25;5000950;28;20541;-72
2023/12/21 08:35:17;;;;;;;0.20;0.20;;;;;;;6.22;84.57;95849.13;5005747;28;20049;-73
2023/12/21 08:37:45;;;;;;;0.20;0.20;;;;;;;6.17;84.81;95840.97;5012530;28;20409;-72
2023/12/21 08:40:14;;;;;;;0.40;0.40;;;;;;;6.17;84.81;95848.09;5011555;28;20136;-73
2023/12/21 08:42:43;;;;;;;0.20;0.20;;;;;;;6.18;84.69;95845.25;5014496;28;20038;-72
2023/12/21 08:45:12;;;;;;;0.28;0.28;;;;;;;6.19;84.89;95831.00;5014196;28;20052;-72
2023/12/21 08:47:40;;;;;;;0.22;0.22;;;;;;;6.19;84.74;95822.22;5010878;28;20057;-72
2023/12/21 08:50:09;;;;;;;0.30;0.30;;;;;;;6.24;84.71;95803.84;5010343;28;20579;-72
2023/12/21 08:52:38;;;;;;;0.10;0.10;;;;;;;6.25;84.52;95802.81;5012656;28;20072;-73
2023/12/21 08:55:08;;;;;;;0.30;0.30;;;;;;;6.23;84.86;95781.03;5007692;28;20042;-72
2023/12/21 08:57:36;;;;;;;0.40;0.40;;;;;;;6.21;85.10;95772.50;5013596;28;20053;-72
2023/12/21 09:00:06;;;;;;;0.10;0.10;;;;;;;6.25;85.10;95785.09;5007887;28;20473;-74
2023/12/21 09:02:34;;;;;;;0.40;0.40;;;;;;;6.27;85.00;95769.00;5008586;28;20057;-72
2023/12/21 09:05:02;;;;;;;0.30;0.30;;;;;;;6.25;85.13;95753.31;5011498;28;20420;-72
2023/12/21 09:07:31;;;;;;;0.20;0.20;;;;;;;6.28;84.96;95760.03;5012056;28;20057;-72
2023/12/21 09:09:59;;;;;;;0.30;0.30;;;;;;;6.30;84.83;95720.09;5015080;28;20049;-72
2023/12/21 09:12:27;;;;;;;0.17;0.17;;;;;;;6.29;85.17;95723.75;5012201;28;20042;-72
2023/12/21 09:14:55;;;;;;;0.20;0.20;;;;;;;6.26;85.53;95714.41;5013542;28;20306;-72
2023/12/21 09:17:24;;;;;;;0.30;0.30;;;;;;;6.33;85.35;95717.03;5013173;28;20054;-73
2023/12/21 09:19:52;;;;;;;0.20;0.20;;;;;;;6.34;85.63;95694.78;5014233;28;20069;-72
2023/12/21 09:22:21;;;;;;;0.50;0.50;;;;;;;6.27;85.60;95678.94;5010671;28;20040;-73
2023/12/21 09:24:49;;;;;;;0.15;0.15;;;;;;;6.28;85.90;95682.41;4999599;28;20112;-72
2023/12/21 09:27:16;;;;;;;0.10;0.10;;;;;;;6.27;86.06;95689.53;5019754;28;20566;-72
2023/12/21 09:29:44;;;;;;;0.20;0.20;;;;;;;6.30;85.76;95677.69;5021661;28;20129;-72
2023/12/21 09:32:12;;;;;;;0.30;0.30;;;;;;;6.35;85.79;95664.59;5012031;28;20038;-73
2023/12/21 09:34:41;;;;;;;0.20;0.20;;;;;;;6.32;86.02;95630.63;5008889;28;20064;-72
2023/12/21 09:37:08;;;;;;;0.30;0.30;;;;;;;6.30;86.23;95624.72;5014263;28;20056;-72
2023/12/21 09:39:36;;;;;;;0.55;0.55;;;;;;;6.28;86.61;95608.22;5012029;28;20056;-73
2023/12/21 09:42:04;;;;;;;0.20;0.20;;;;;;;6.24;87.27;95606.00;5011859;28;20077;-72
2023/12/21 09:44:32;;;;;;;0.20;0.20;;;;;;;6.24;87.30;95586.66;5013091;28;20042;-74
2023/12/21 09:47:02;;;;;;;0.30;0.30;;;;;;;6.19;87.65;95589.16;5011376;28;20042;-72
2023/12/21 09:49:35;;;;;;;0.30;0.30;;;;;;;6.23;87.52;95588.50;5008253;28;20163;-72
2023/12/21 09:52:07;;;;;;;0.30;0.30;;;;;;;6.18;87.93;95574.28;5008335;28;20164;-73
2023/12/21 09:54:35;;;;;;;0.40;0.40;;;;;;;6.16;87.98;95576.34;5014001;28;20053;-72
2023/12/21 09:57:04;;;;;;;0.30;0.30;;;;;;;6.16;87.99;95571.03;5014173;28;20050;-72
2023/12/21 09:59:32;;;;;;;0.32;0.32;;;;;;;6.25;87.16;95559.94;5014516;28;20165;-72
2023/12/21 10:02:01;;;;;;;0.30;0.30;;;;;;;6.28;87.01;95542.81;5014565;28;20038;-72
2023/12/21 10:04:29;;;;;;;0.22;0.22;;;;;;;6.29;86.61;95528.56;5012024;28;20136;-73
2023/12/21 10:06:56;;;;;;;0.20;0.20;;;;;;;6.34;86.46;95511.97;5028305;28;20129;-73
2023/12/21 10:09:26;;;;;;;0.22;0.22;;;;;;;6.37;85.51;95507.06;5025257;28;20537;-72
2023/12/21 10:11:53;;;;;;;0.20;0.20;;;;;;;6.44;85.57;95506.97;5025465;28;20045;-73
2023/12/21 10:14:21;;;;;;;0.30;0.30;;;;;;;6.47;84.77;95477.41;5024641;28;20052;-73
2023/12/21 10:16:49;;;;;;;0.28;0.28;;;;;;;6.49;84.63;95486.75;5018689;28;20151;-74
2023/12/21 10:19:17;;;;;;;0.43;0.43;;;;;;;6.52;84.51;95477.56;5027795;28;20141;-72
2023/12/21 10:21:46;;;;;;;0.22;0.22;;;;;;;6.55;83.89;95469.97;5020222;28;20042;-73
2023/12/21 10:24:13;;;;;;;0.28;0.28;;;;;;;6.57;84.21;95443.25;5036411;28;20473;-73
2023/12/21 10:26:44;;;;;;;0.30;0.30;;;;;;;6.59;83.86;95436.69;5023784;28;20045;-72
2023/12/21 10:29:17;;;;;;;0.20;0.20;;;;;;;6.63;84.14;95434.41;5019289;28;20050;-72
2023/12/21 10:31:45;;;;;;;0.30;0.30;;;;;;;6.62;84.39;95379.78;5016408;28;20050;-72
2023/12/21 10:34:14;;;;;;;0.22;0.22;;;;;;;6.59;84.45;95419.97;5014223;28;20052;-72
2023/12/21 10:36:43;;;;;;;0.40;0.40;;;;;;;6.59;84.73;95406.72;5012079;28;20046;-72
2023/12/21 10:39:12;;;;;;;0.30;0.30;;;;;;;6.61;84.86;95416.09;5012589;28;20034;-72
2023/12/21 10:41:41;;;;;;;0.30;0.30;;;;;;;6.59;84.81;95402.25;5007761;28;20053;-73
2023/12/21 10:44:10;;;;;;;0.40;0.40;;;;;;;6.59;85.72;95396.94;5012970;28;20041;-72
2023/12/21 10:46:39;;;;;;;0.30;0.30;;;;;;;6.58;85.96;95410.41;5015451;28;20038;-72
2023/12/21 10:49:07;;;;;;;0.28;0.28;;;;;;;6.57;86.18;95393.69;5011134;28;20054;-72
2023/12/21 10:51:36;;;;;;;0.20;0.20;;;;;;;6.56;86.32;95405.31;5015601;28;20049;-72
2023/12/21 10:54:07;;;;;;;0.20;0.20;;;;;;;6.61;85.77;95397.53;5012785;28;20064;-73
2023/12/21 10:56:36;;;;;;;0.25;0.25;;;;;;;6.61;85.92;95384.28;5011292;28;20046;-72
2023/12/21 10:59:05;;;;;;;0.30;0.30;;;;;;;6.64;86.21;95394.41;5013369;28;20073;-72
2023/12/21 11:01:34;;;;;;;0.32;0.32;;;;;;;6.63;86.27;95384.88;5019023;28;20069;-72
2023/12/21 11:04:03;;;;;;;0.35;0.35;;;;;;;6.61;86.75;95394.06;5016875;28;20107;-74
2023/12/21 11:06:32;;;;;;;0.40;0.40;;;;;;;6.61;87.03;95389.59;5018150;28;20137;-73
2023/12/21 11:09:01;;;;;;;0.30;0.30;;;;;;;6.61;87.12;95378.97;5016705;28;20552;-72
2023/12/21 11:11:28;;;;;;;0.20;0.20;;;;;;;6.61;87.67;95378.97;5016381;28;20064;-73
2023/12/21 11:13:56;;;;;;;0.20;0.20;;;;;;;6.59;88.11;95359.03;5003364;28;20046;-73
2023/12/21 11:16:27;;;;;;;0.10;0.10;;;;;;;6.63;87.87;95368.97;5013876;28;20125;-74
2023/12/21 11:18:59;;;;;;;0.30;0.30;;;;;;;6.62;87.75;95350.63;5010321;28;20038;-72
2023/12/21 11:21:27;;;;;;;0.15;0.15;;;;;;;6.63;87.27;95345.13;5011066;28;20050;-72
2023/12/21 11:23:55;;;;;;;0.20;0.20;;;;;;;6.64;87.14;95322.06;5002253;28;20045;-73
2023/12/21 11:26:27;;;;;;;0.30;0.30;;;;;;;6.69;86.82;95326.69;5005000;28;20100;-73
2023/12/21 11:29:03;;;;;;;0.22;0.22;;;;;;;6.71;86.61;95308.72;5013407;28;20527;-72
2023/12/21 11:31:36;;;;;;;0.30;0.30;;;;;;;6.76;86.13;95317.59;5009008;28;20129;-73
2023/12/21 11:34:13;;;;;;;0.25;0.25;;;;;;;6.78;86.16;95296.16;5005611;28;20437;-70
2023/12/21 11:36:41;;;;;;;0.38;0.38;;;;;;;6.83;85.55;95288.34;5011220;28;20576;-72
2023/12/21 11:39:12;;;;;;;0.30;0.30;;;;;;;6.84;85.06;95282.81;5010986;28;20045;-72
2023/12/21 11:41:49;;;;;;;0.10;0.10;;;;;;;6.88;84.62;95281.31;5010611;28;20041;-73
2023/12/21 11:44:16;;;;;;;0.30;0.30;;;;;;;6.88;84.63;95273.34;5014908;28;20130;-73
2023/12/21 11:46:44;;;;;;;0.20;0.20;;;;;;;6.96;83.20;95272.19;5012857;28;20409;-73